sensor_id;sensor_type;location;lat;lon;timestamp;P1;durP1;ratioP1;P2;durP2;ratioP2
64085;SDS011;50333;47.436;21.390;2022-08-21T00:01:52;9.18;;;4.85;;
64085;SDS011;50333;47.436;21.390;2022-08-21T00:04:21;9.02;;;4.28;;
64085;SDS011;50333;47.436;21.390;2022-08-21T00:06:55;8.52;;;4.05;;
64085;SDS011;50333;47.436;21.390;2022-08-21T00:09:24;10.00;;;4.55;;
64085;SDS011;50333;47.436;21.390;2022-08-21T00:11:52;8.50;;;3.92;;
64085;SDS011;50333;47.436;21.390;2022-08-21T00:14:20;14.87;;;4.78;;
64085;SDS011;50333;47.436;21.390;2022-08-21T00:16:48;10.93;;;4.32;;
64085;SDS011;50333;47.436;21.390;2022-08-21T00:19:16;7.97;;;4.55;;
64085;SDS011;50333;47.436;21.390;2022-08-21T00:21:44;8.70;;;4.72;;
64085;SDS011;50333;47.436;21.390;2022-08-21T00:24:12;10.20;;;4.90;;
64085;SDS011;50333;47.436;21.390;2022-08-21T00:26:40;7.68;;;4.05;;
64085;SDS011;50333;47.436;21.390;2022-08-21T00:29:08;7.55;;;4.47;;
64085;SDS011;50333;47.436;21.390;2022-08-21T00:31:36;7.95;;;4.78;;
64085;SDS011;50333;47.436;21.390;2022-08-21T00:34:04;7.85;;;4.55;;
64085;SDS011;50333;47.436;21.390;2022-08-21T00:36:32;11.98;;;4.72;;
64085;SDS011;50333;47.436;21.390;2022-08-21T00:39:00;9.80;;;5.00;;
64085;SDS011;50333;47.436;21.390;2022-08-21T00:41:28;6.43;;;4.32;;
64085;SDS011;50333;47.436;21.390;2022-08-21T00:44:07;8.48;;;4.72;;
64085;SDS011;50333;47.436;21.390;2022-08-21T00:46:36;8.38;;;4.80;;
64085;SDS011;50333;47.436;21.390;2022-08-21T00:49:06;16.65;;;5.30;;
64085;SDS011;50333;47.436;21.390;2022-08-21T00:54:18;7.47;;;4.32;;
64085;SDS011;50333;47.436;21.390;2022-08-21T00:56:51;10.15;;;4.93;;
64085;SDS011;50333;47.436;21.390;2022-08-21T00:59:26;9.25;;;4.97;;
64085;SDS011;50333;47.436;21.390;2022-08-21T01:01:57;8.20;;;4.72;;
64085;SDS011;50333;47.436;21.390;2022-08-21T01:04:25;10.30;;;4.57;;
64085;SDS011;50333;47.436;21.390;2022-08-21T01:06:53;9.18;;;4.65;;
64085;SDS011;50333;47.436;21.390;2022-08-21T01:09:22;10.05;;;5.03;;
64085;SDS011;50333;47.436;21.390;2022-08-21T01:11:50;9.88;;;4.80;;
64085;SDS011;50333;47.436;21.390;2022-08-21T01:14:18;9.20;;;4.95;;
64085;SDS011;50333;47.436;21.390;2022-08-21T01:16:48;11.02;;;4.75;;
64085;SDS011;50333;47.436;21.390;2022-08-21T01:19:19;13.10;;;5.18;;
64085;SDS011;50333;47.436;21.390;2022-08-21T01:21:48;12.80;;;5.18;;
64085;SDS011;50333;47.436;21.390;2022-08-21T01:24:16;12.32;;;5.65;;
64085;SDS011;50333;47.436;21.390;2022-08-21T01:26:44;12.05;;;5.32;;
64085;SDS011;50333;47.436;21.390;2022-08-21T01:32:02;10.75;;;5.20;;
64085;SDS011;50333;47.436;21.390;2022-08-21T01:34:33;8.02;;;5.03;;
64085;SDS011;50333;47.436;21.390;2022-08-21T01:37:03;9.50;;;5.47;;
64085;SDS011;50333;47.436;21.390;2022-08-21T01:39:32;6.70;;;4.32;;
64085;SDS011;50333;47.436;21.390;2022-08-21T01:42:00;14.05;;;5.28;;
64085;SDS011;50333;47.436;21.390;2022-08-21T01:44:28;6.82;;;4.97;;
64085;SDS011;50333;47.436;21.390;2022-08-21T01:46:57;12.18;;;5.62;;
64085;SDS011;50333;47.436;21.390;2022-08-21T01:49:27;10.05;;;5.03;;
64085;SDS011;50333;47.436;21.390;2022-08-21T01:51:55;10.18;;;5.45;;
64085;SDS011;50333;47.436;21.390;2022-08-21T01:54:23;9.80;;;5.75;;
64085;SDS011;50333;47.436;21.390;2022-08-21T01:56:52;11.77;;;5.53;;
64085;SDS011;50333;47.436;21.390;2022-08-21T01:59:22;8.80;;;5.03;;
64085;SDS011;50333;47.436;21.390;2022-08-21T02:01:51;12.70;;;5.70;;
64085;SDS011;50333;47.436;21.390;2022-08-21T02:04:21;10.80;;;5.50;;
64085;SDS011;50333;47.436;21.390;2022-08-21T02:06:49;11.90;;;5.68;;
64085;SDS011;50333;47.436;21.390;2022-08-21T02:09:18;12.68;;;5.78;;
64085;SDS011;50333;47.436;21.390;2022-08-21T02:11:47;12.05;;;5.20;;
64085;SDS011;50333;47.436;21.390;2022-08-21T02:14:15;10.10;;;5.37;;
64085;SDS011;50333;47.436;21.390;2022-08-21T02:16:59;11.75;;;6.00;;
64085;SDS011;50333;47.436;21.390;2022-08-21T02:19:36;11.50;;;5.97;;
64085;SDS011;50333;47.436;21.390;2022-08-21T02:22:08;10.30;;;5.87;;
64085;SDS011;50333;47.436;21.390;2022-08-21T02:24:37;11.07;;;6.22;;
64085;SDS011;50333;47.436;21.390;2022-08-21T02:27:22;10.68;;;5.93;;
64085;SDS011;50333;47.436;21.390;2022-08-21T02:29:54;9.75;;;6.05;;
64085;SDS011;50333;47.436;21.390;2022-08-21T02:32:24;9.25;;;5.82;;
64085;SDS011;50333;47.436;21.390;2022-08-21T02:34:53;9.48;;;5.75;;
64085;SDS011;50333;47.436;21.390;2022-08-21T02:37:21;11.35;;;5.60;;
64085;SDS011;50333;47.436;21.390;2022-08-21T02:39:50;12.15;;;6.43;;
64085;SDS011;50333;47.436;21.390;2022-08-21T02:42:18;10.38;;;6.30;;
64085;SDS011;50333;47.436;21.390;2022-08-21T02:44:46;9.60;;;6.00;;
64085;SDS011;50333;47.436;21.390;2022-08-21T02:47:15;10.55;;;6.47;;
64085;SDS011;50333;47.436;21.390;2022-08-21T02:49:43;11.57;;;6.57;;
64085;SDS011;50333;47.436;21.390;2022-08-21T02:52:11;11.82;;;6.37;;
64085;SDS011;50333;47.436;21.390;2022-08-21T02:54:39;13.48;;;6.12;;
64085;SDS011;50333;47.436;21.390;2022-08-21T02:57:07;13.48;;;7.00;;
64085;SDS011;50333;47.436;21.390;2022-08-21T02:59:35;14.30;;;6.55;;
64085;SDS011;50333;47.436;21.390;2022-08-21T03:02:03;10.63;;;6.40;;
64085;SDS011;50333;47.436;21.390;2022-08-21T03:04:31;11.55;;;6.75;;
64085;SDS011;50333;47.436;21.390;2022-08-21T03:06:59;16.20;;;6.75;;
64085;SDS011;50333;47.436;21.390;2022-08-21T03:09:28;13.10;;;6.82;;
64085;SDS011;50333;47.436;21.390;2022-08-21T03:11:55;13.93;;;6.90;;
64085;SDS011;50333;47.436;21.390;2022-08-21T03:14:23;15.25;;;6.85;;
64085;SDS011;50333;47.436;21.390;2022-08-21T03:16:51;12.95;;;6.25;;
64085;SDS011;50333;47.436;21.390;2022-08-21T03:19:19;12.32;;;6.80;;
64085;SDS011;50333;47.436;21.390;2022-08-21T03:21:47;13.62;;;6.97;;
64085;SDS011;50333;47.436;21.390;2022-08-21T03:24:16;12.30;;;6.00;;
64085;SDS011;50333;47.436;21.390;2022-08-21T03:26:47;13.50;;;6.37;;
64085;SDS011;50333;47.436;21.390;2022-08-21T03:29:16;14.82;;;6.60;;
64085;SDS011;50333;47.436;21.390;2022-08-21T03:31:44;11.77;;;6.50;;
64085;SDS011;50333;47.436;21.390;2022-08-21T03:34:12;13.40;;;6.18;;
64085;SDS011;50333;47.436;21.390;2022-08-21T03:36:40;13.80;;;7.32;;
64085;SDS011;50333;47.436;21.390;2022-08-21T03:39:08;12.60;;;6.65;;
64085;SDS011;50333;47.436;21.390;2022-08-21T03:41:35;14.55;;;7.05;;
64085;SDS011;50333;47.436;21.390;2022-08-21T03:44:04;17.55;;;7.07;;
64085;SDS011;50333;47.436;21.390;2022-08-21T03:46:31;9.85;;;6.78;;
64085;SDS011;50333;47.436;21.390;2022-08-21T03:48:59;11.50;;;7.03;;
64085;SDS011;50333;47.436;21.390;2022-08-21T03:51:27;14.70;;;7.07;;
64085;SDS011;50333;47.436;21.390;2022-08-21T03:53:55;14.30;;;6.28;;
64085;SDS011;50333;47.436;21.390;2022-08-21T03:56:23;16.15;;;6.55;;
64085;SDS011;50333;47.436;21.390;2022-08-21T03:58:51;13.45;;;7.45;;
64085;SDS011;50333;47.436;21.390;2022-08-21T04:01:19;13.95;;;7.03;;
64085;SDS011;50333;47.436;21.390;2022-08-21T04:03:47;15.27;;;6.90;;
64085;SDS011;50333;47.436;21.390;2022-08-21T04:06:14;17.85;;;7.37;;
64085;SDS011;50333;47.436;21.390;2022-08-21T04:08:42;11.27;;;6.87;;
64085;SDS011;50333;47.436;21.390;2022-08-21T04:11:10;14.57;;;6.68;;
64085;SDS011;50333;47.436;21.390;2022-08-21T04:13:38;10.98;;;6.43;;
64085;SDS011;50333;47.436;21.390;2022-08-21T04:16:11;18.05;;;7.03;;
64085;SDS011;50333;47.436;21.390;2022-08-21T04:18:39;12.13;;;7.07;;
64085;SDS011;50333;47.436;21.390;2022-08-21T04:21:09;7.80;;;6.28;;
64085;SDS011;50333;47.436;21.390;2022-08-21T04:23:39;15.50;;;7.78;;
64085;SDS011;50333;47.436;21.390;2022-08-21T04:26:07;10.43;;;6.82;;
64085;SDS011;50333;47.436;21.390;2022-08-21T04:28:36;13.80;;;7.28;;
64085;SDS011;50333;47.436;21.390;2022-08-21T04:31:04;9.45;;;6.80;;
64085;SDS011;50333;47.436;21.390;2022-08-21T04:33:32;18.25;;;7.72;;
64085;SDS011;50333;47.436;21.390;2022-08-21T04:36:00;13.13;;;7.00;;
64085;SDS011;50333;47.436;21.390;2022-08-21T04:38:29;14.68;;;7.70;;
64085;SDS011;50333;47.436;21.390;2022-08-21T04:41:04;13.88;;;7.80;;
64085;SDS011;50333;47.436;21.390;2022-08-21T04:43:34;12.00;;;7.15;;
64085;SDS011;50333;47.436;21.390;2022-08-21T04:46:02;15.48;;;7.50;;
64085;SDS011;50333;47.436;21.390;2022-08-21T04:48:30;15.15;;;7.40;;
64085;SDS011;50333;47.436;21.390;2022-08-21T04:51:08;16.10;;;7.62;;
64085;SDS011;50333;47.436;21.390;2022-08-21T04:53:45;16.62;;;7.47;;
64085;SDS011;50333;47.436;21.390;2022-08-21T04:56:21;14.32;;;7.40;;
64085;SDS011;50333;47.436;21.390;2022-08-21T04:58:53;17.02;;;8.48;;
64085;SDS011;50333;47.436;21.390;2022-08-21T05:01:25;19.20;;;7.50;;
64085;SDS011;50333;47.436;21.390;2022-08-21T05:03:56;15.88;;;8.20;;
64085;SDS011;50333;47.436;21.390;2022-08-21T05:06:28;13.20;;;7.78;;
64085;SDS011;50333;47.436;21.390;2022-08-21T05:09:00;15.27;;;7.78;;
64085;SDS011;50333;47.436;21.390;2022-08-21T05:11:29;15.88;;;8.13;;
64085;SDS011;50333;47.436;21.390;2022-08-21T05:13:58;14.82;;;9.05;;
64085;SDS011;50333;47.436;21.390;2022-08-21T05:16:26;15.77;;;8.10;;
64085;SDS011;50333;47.436;21.390;2022-08-21T05:19:07;8.27;;;7.32;;
64085;SDS011;50333;47.436;21.390;2022-08-21T05:21:37;10.80;;;7.47;;
64085;SDS011;50333;47.436;21.390;2022-08-21T05:24:07;14.77;;;8.13;;
64085;SDS011;50333;47.436;21.390;2022-08-21T05:26:35;15.02;;;7.68;;
64085;SDS011;50333;47.436;21.390;2022-08-21T05:29:13;15.20;;;8.50;;
64085;SDS011;50333;47.436;21.390;2022-08-21T05:31:43;13.88;;;7.78;;
64085;SDS011;50333;47.436;21.390;2022-08-21T05:34:12;15.18;;;7.80;;
64085;SDS011;50333;47.436;21.390;2022-08-21T05:36:43;13.40;;;7.75;;
64085;SDS011;50333;47.436;21.390;2022-08-21T05:39:11;13.32;;;8.38;;
64085;SDS011;50333;47.436;21.390;2022-08-21T05:41:39;15.73;;;8.10;;
64085;SDS011;50333;47.436;21.390;2022-08-21T05:44:08;15.90;;;7.40;;
64085;SDS011;50333;47.436;21.390;2022-08-21T05:46:36;10.80;;;7.87;;
64085;SDS011;50333;47.436;21.390;2022-08-21T05:49:04;14.10;;;7.82;;
64085;SDS011;50333;47.436;21.390;2022-08-21T05:51:32;14.50;;;8.07;;
64085;SDS011;50333;47.436;21.390;2022-08-21T05:54:00;18.90;;;8.93;;
64085;SDS011;50333;47.436;21.390;2022-08-21T05:56:32;16.60;;;8.95;;
64085;SDS011;50333;47.436;21.390;2022-08-21T05:59:00;17.42;;;8.13;;
64085;SDS011;50333;47.436;21.390;2022-08-21T06:01:28;17.55;;;8.32;;
64085;SDS011;50333;47.436;21.390;2022-08-21T06:03:58;15.20;;;8.68;;
64085;SDS011;50333;47.436;21.390;2022-08-21T06:06:27;16.02;;;8.85;;
64085;SDS011;50333;47.436;21.390;2022-08-21T06:08:55;15.65;;;8.70;;
64085;SDS011;50333;47.436;21.390;2022-08-21T06:11:23;17.80;;;9.00;;
64085;SDS011;50333;47.436;21.390;2022-08-21T06:13:55;13.15;;;8.57;;
64085;SDS011;50333;47.436;21.390;2022-08-21T06:16:24;14.25;;;9.52;;
64085;SDS011;50333;47.436;21.390;2022-08-21T06:18:52;18.27;;;9.65;;
64085;SDS011;50333;47.436;21.390;2022-08-21T06:21:23;18.73;;;10.10;;
64085;SDS011;50333;47.436;21.390;2022-08-21T06:23:51;18.70;;;9.02;;
64085;SDS011;50333;47.436;21.390;2022-08-21T06:26:19;13.07;;;8.32;;
64085;SDS011;50333;47.436;21.390;2022-08-21T06:28:48;16.15;;;9.98;;
64085;SDS011;50333;47.436;21.390;2022-08-21T06:31:18;14.23;;;9.25;;
64085;SDS011;50333;47.436;21.390;2022-08-21T06:33:48;16.62;;;9.20;;
64085;SDS011;50333;47.436;21.390;2022-08-21T06:36:17;17.60;;;10.27;;
64085;SDS011;50333;47.436;21.390;2022-08-21T06:38:47;13.90;;;9.77;;
64085;SDS011;50333;47.436;21.390;2022-08-21T06:41:19;17.75;;;9.40;;
64085;SDS011;50333;47.436;21.390;2022-08-21T06:43:50;12.88;;;8.63;;
64085;SDS011;50333;47.436;21.390;2022-08-21T06:46:18;17.83;;;9.45;;
64085;SDS011;50333;47.436;21.390;2022-08-21T06:48:46;15.60;;;9.98;;
64085;SDS011;50333;47.436;21.390;2022-08-21T06:51:14;18.25;;;9.85;;
64085;SDS011;50333;47.436;21.390;2022-08-21T06:53:42;17.83;;;9.57;;
64085;SDS011;50333;47.436;21.390;2022-08-21T06:56:10;15.60;;;9.50;;
64085;SDS011;50333;47.436;21.390;2022-08-21T06:58:38;16.27;;;9.55;;
64085;SDS011;50333;47.436;21.390;2022-08-21T07:01:07;12.37;;;8.63;;
64085;SDS011;50333;47.436;21.390;2022-08-21T07:03:36;16.42;;;9.50;;
64085;SDS011;50333;47.436;21.390;2022-08-21T07:06:06;15.00;;;9.10;;
64085;SDS011;50333;47.436;21.390;2022-08-21T07:08:36;15.52;;;9.05;;
64085;SDS011;50333;47.436;21.390;2022-08-21T07:11:19;14.73;;;9.23;;
64085;SDS011;50333;47.436;21.390;2022-08-21T07:13:49;17.48;;;9.65;;
64085;SDS011;50333;47.436;21.390;2022-08-21T07:16:22;21.50;;;9.52;;
64085;SDS011;50333;47.436;21.390;2022-08-21T07:18:50;14.55;;;8.95;;
64085;SDS011;50333;47.436;21.390;2022-08-21T07:21:18;17.67;;;10.20;;
64085;SDS011;50333;47.436;21.390;2022-08-21T07:23:52;16.92;;;9.93;;
64085;SDS011;50333;47.436;21.390;2022-08-21T07:26:21;16.65;;;8.80;;
64085;SDS011;50333;47.436;21.390;2022-08-21T07:28:50;17.75;;;9.73;;
64085;SDS011;50333;47.436;21.390;2022-08-21T07:31:20;13.88;;;8.63;;
64085;SDS011;50333;47.436;21.390;2022-08-21T07:33:50;14.40;;;9.45;;
64085;SDS011;50333;47.436;21.390;2022-08-21T07:36:18;16.20;;;9.02;;
64085;SDS011;50333;47.436;21.390;2022-08-21T07:38:46;15.63;;;8.98;;
64085;SDS011;50333;47.436;21.390;2022-08-21T07:41:21;17.85;;;9.65;;
64085;SDS011;50333;47.436;21.390;2022-08-21T07:43:51;15.75;;;9.80;;
64085;SDS011;50333;47.436;21.390;2022-08-21T07:46:19;15.20;;;9.50;;
64085;SDS011;50333;47.436;21.390;2022-08-21T07:48:47;13.65;;;9.65;;
64085;SDS011;50333;47.436;21.390;2022-08-21T07:51:16;15.30;;;9.98;;
64085;SDS011;50333;47.436;21.390;2022-08-21T07:53:49;12.60;;;10.38;;
64085;SDS011;50333;47.436;21.390;2022-08-21T07:56:19;17.08;;;10.55;;
64085;SDS011;50333;47.436;21.390;2022-08-21T07:58:50;16.52;;;10.98;;
64085;SDS011;50333;47.436;21.390;2022-08-21T08:01:19;17.02;;;10.70;;
64085;SDS011;50333;47.436;21.390;2022-08-21T08:03:47;17.90;;;9.82;;
64085;SDS011;50333;47.436;21.390;2022-08-21T08:06:15;14.30;;;9.20;;
64085;SDS011;50333;47.436;21.390;2022-08-21T08:08:45;16.00;;;9.85;;
64085;SDS011;50333;47.436;21.390;2022-08-21T08:11:14;16.80;;;10.35;;
64085;SDS011;50333;47.436;21.390;2022-08-21T08:13:45;16.58;;;8.98;;
64085;SDS011;50333;47.436;21.390;2022-08-21T08:16:16;19.17;;;9.60;;
64085;SDS011;50333;47.436;21.390;2022-08-21T08:18:44;16.70;;;9.70;;
64085;SDS011;50333;47.436;21.390;2022-08-21T08:21:13;15.20;;;9.63;;
64085;SDS011;50333;47.436;21.390;2022-08-21T08:23:42;20.23;;;10.32;;
64085;SDS011;50333;47.436;21.390;2022-08-21T08:26:12;18.03;;;9.43;;
64085;SDS011;50333;47.436;21.390;2022-08-21T08:28:39;16.67;;;9.32;;
64085;SDS011;50333;47.436;21.390;2022-08-21T08:31:08;18.75;;;9.77;;
64085;SDS011;50333;47.436;21.390;2022-08-21T08:33:36;17.35;;;10.90;;
64085;SDS011;50333;47.436;21.390;2022-08-21T08:36:03;16.52;;;10.65;;
64085;SDS011;50333;47.436;21.390;2022-08-21T08:38:37;16.42;;;9.82;;
64085;SDS011;50333;47.436;21.390;2022-08-21T08:43:44;16.20;;;9.10;;
64085;SDS011;50333;47.436;21.390;2022-08-21T08:46:19;15.38;;;10.63;;
64085;SDS011;50333;47.436;21.390;2022-08-21T08:48:59;14.77;;;10.48;;
64085;SDS011;50333;47.436;21.390;2022-08-21T08:51:55;18.52;;;10.90;;
64085;SDS011;50333;47.436;21.390;2022-08-21T08:54:34;19.35;;;9.90;;
64085;SDS011;50333;47.436;21.390;2022-08-21T08:57:13;14.57;;;10.40;;
64085;SDS011;50333;47.436;21.390;2022-08-21T08:59:44;16.60;;;9.82;;
64085;SDS011;50333;47.436;21.390;2022-08-21T09:02:16;13.45;;;9.10;;
64085;SDS011;50333;47.436;21.390;2022-08-21T09:04:45;15.23;;;9.65;;
64085;SDS011;50333;47.436;21.390;2022-08-21T09:12:37;17.92;;;9.80;;
64085;SDS011;50333;47.436;21.390;2022-08-21T09:15:15;18.02;;;10.48;;
64085;SDS011;50333;47.436;21.390;2022-08-21T09:17:56;16.60;;;9.80;;
64085;SDS011;50333;47.436;21.390;2022-08-21T09:20:54;14.30;;;9.63;;
64085;SDS011;50333;47.436;21.390;2022-08-21T09:26:26;20.02;;;9.40;;
64085;SDS011;50333;47.436;21.390;2022-08-21T09:29:13;16.33;;;9.10;;
64085;SDS011;50333;47.436;21.390;2022-08-21T09:31:45;14.32;;;9.05;;
64085;SDS011;50333;47.436;21.390;2022-08-21T09:34:23;15.48;;;8.68;;
64085;SDS011;50333;47.436;21.390;2022-08-21T09:36:53;15.90;;;8.82;;
64085;SDS011;50333;47.436;21.390;2022-08-21T09:39:28;16.65;;;8.73;;
64085;SDS011;50333;47.436;21.390;2022-08-21T09:41:59;15.60;;;8.80;;
64085;SDS011;50333;47.436;21.390;2022-08-21T09:44:33;15.15;;;8.10;;
64085;SDS011;50333;47.436;21.390;2022-08-21T09:47:07;13.90;;;8.40;;
64085;SDS011;50333;47.436;21.390;2022-08-21T09:49:38;16.62;;;9.15;;
64085;SDS011;50333;47.436;21.390;2022-08-21T09:52:21;13.77;;;8.48;;
64085;SDS011;50333;47.436;21.390;2022-08-21T09:54:54;15.10;;;7.78;;
64085;SDS011;50333;47.436;21.390;2022-08-21T09:57:24;13.13;;;8.02;;
64085;SDS011;50333;47.436;21.390;2022-08-21T10:00:26;15.10;;;8.00;;
64085;SDS011;50333;47.436;21.390;2022-08-21T10:02:55;15.73;;;7.43;;
64085;SDS011;50333;47.436;21.390;2022-08-21T10:05:36;14.10;;;7.50;;
64085;SDS011;50333;47.436;21.390;2022-08-21T10:08:15;17.33;;;8.25;;
64085;SDS011;50333;47.436;21.390;2022-08-21T10:10:44;10.05;;;7.43;;
64085;SDS011;50333;47.436;21.390;2022-08-21T10:13:26;11.20;;;6.78;;
64085;SDS011;50333;47.436;21.390;2022-08-21T10:19:05;13.45;;;7.00;;
64085;SDS011;50333;47.436;21.390;2022-08-21T10:30:02;10.95;;;6.50;;
64085;SDS011;50333;47.436;21.390;2022-08-21T10:48:22;14.02;;;6.53;;
64085;SDS011;50333;47.436;21.390;2022-08-21T10:51:34;13.38;;;6.40;;
64085;SDS011;50333;47.436;21.390;2022-08-21T10:54:12;10.40;;;6.00;;
64085;SDS011;50333;47.436;21.390;2022-08-21T10:56:50;12.48;;;6.68;;
64085;SDS011;50333;47.436;21.390;2022-08-21T11:02:12;12.25;;;6.57;;
64085;SDS011;50333;47.436;21.390;2022-08-21T11:04:53;12.07;;;6.30;;
64085;SDS011;50333;47.436;21.390;2022-08-21T11:07:38;13.02;;;5.47;;
64085;SDS011;50333;47.436;21.390;2022-08-21T11:10:19;13.18;;;4.80;;
64085;SDS011;50333;47.436;21.390;2022-08-21T11:12:55;14.48;;;6.30;;
64085;SDS011;50333;47.436;21.390;2022-08-21T11:15:35;14.40;;;5.72;;
64085;SDS011;50333;47.436;21.390;2022-08-21T11:20:43;12.30;;;5.37;;
64085;SDS011;50333;47.436;21.390;2022-08-21T11:24:09;12.88;;;5.22;;
64085;SDS011;50333;47.436;21.390;2022-08-21T11:26:23;19.35;;;5.75;;
64085;SDS011;50333;47.436;21.390;2022-08-21T11:29:21;11.93;;;5.25;;
64085;SDS011;50333;47.436;21.390;2022-08-21T11:32:09;11.20;;;5.28;;
64085;SDS011;50333;47.436;21.390;2022-08-21T11:35:00;13.15;;;5.40;;
64085;SDS011;50333;47.436;21.390;2022-08-21T11:40:09;11.98;;;4.50;;
64085;SDS011;50333;47.436;21.390;2022-08-21T11:46:02;11.45;;;5.35;;
64085;SDS011;50333;47.436;21.390;2022-08-21T11:48:47;9.32;;;4.53;;
64085;SDS011;50333;47.436;21.390;2022-08-21T11:51:18;9.75;;;4.50;;
64085;SDS011;50333;47.436;21.390;2022-08-21T11:58:56;8.43;;;4.68;;
64085;SDS011;50333;47.436;21.390;2022-08-21T12:01:33;10.88;;;5.20;;
64085;SDS011;50333;47.436;21.390;2022-08-21T12:04:08;10.43;;;4.97;;
64085;SDS011;50333;47.436;21.390;2022-08-21T12:06:45;11.23;;;4.40;;
64085;SDS011;50333;47.436;21.390;2022-08-21T12:14:41;12.32;;;4.70;;
64085;SDS011;50333;47.436;21.390;2022-08-21T12:17:24;11.32;;;4.90;;
64085;SDS011;50333;47.436;21.390;2022-08-21T12:25:48;10.52;;;4.18;;
64085;SDS011;50333;47.436;21.390;2022-08-21T12:28:45;9.68;;;3.70;;
64085;SDS011;50333;47.436;21.390;2022-08-21T12:31:20;9.70;;;3.83;;
64085;SDS011;50333;47.436;21.390;2022-08-21T12:33:59;11.23;;;4.18;;
64085;SDS011;50333;47.436;21.390;2022-08-21T12:36:38;10.45;;;4.20;;
64085;SDS011;50333;47.436;21.390;2022-08-21T12:39:14;10.63;;;4.15;;
64085;SDS011;50333;47.436;21.390;2022-08-21T12:41:48;8.18;;;4.50;;
64085;SDS011;50333;47.436;21.390;2022-08-21T12:44:35;6.70;;;4.03;;
64085;SDS011;50333;47.436;21.390;2022-08-21T12:47:13;9.88;;;4.00;;
64085;SDS011;50333;47.436;21.390;2022-08-21T12:49:48;9.27;;;4.00;;
64085;SDS011;50333;47.436;21.390;2022-08-21T12:52:30;12.90;;;4.35;;
64085;SDS011;50333;47.436;21.390;2022-08-21T12:55:07;10.93;;;3.92;;
64085;SDS011;50333;47.436;21.390;2022-08-21T12:57:40;13.70;;;4.78;;
64085;SDS011;50333;47.436;21.390;2022-08-21T13:00:09;10.35;;;4.40;;
64085;SDS011;50333;47.436;21.390;2022-08-21T13:02:46;11.73;;;4.70;;
64085;SDS011;50333;47.436;21.390;2022-08-21T13:05:20;12.07;;;4.65;;
64085;SDS011;50333;47.436;21.390;2022-08-21T13:07:56;16.00;;;5.03;;
64085;SDS011;50333;47.436;21.390;2022-08-21T13:10:29;9.38;;;4.82;;
64085;SDS011;50333;47.436;21.390;2022-08-21T13:13:01;10.68;;;4.20;;
64085;SDS011;50333;47.436;21.390;2022-08-21T13:15:39;8.90;;;4.57;;
64085;SDS011;50333;47.436;21.390;2022-08-21T13:18:22;10.30;;;4.80;;
64085;SDS011;50333;47.436;21.390;2022-08-21T13:20:52;8.32;;;4.18;;
64085;SDS011;50333;47.436;21.390;2022-08-21T13:23:34;9.32;;;4.30;;
64085;SDS011;50333;47.436;21.390;2022-08-21T13:26:11;13.32;;;5.25;;
64085;SDS011;50333;47.436;21.390;2022-08-21T13:28:45;12.10;;;4.53;;
64085;SDS011;50333;47.436;21.390;2022-08-21T13:31:27;12.03;;;4.43;;
64085;SDS011;50333;47.436;21.390;2022-08-21T13:33:59;9.98;;;4.18;;
64085;SDS011;50333;47.436;21.390;2022-08-21T13:36:30;8.82;;;5.00;;
64085;SDS011;50333;47.436;21.390;2022-08-21T13:39:03;10.73;;;4.40;;
64085;SDS011;50333;47.436;21.390;2022-08-21T13:41:44;8.63;;;4.40;;
64085;SDS011;50333;47.436;21.390;2022-08-21T13:44:22;9.18;;;4.70;;
64085;SDS011;50333;47.436;21.390;2022-08-21T13:46:59;10.30;;;4.40;;
64085;SDS011;50333;47.436;21.390;2022-08-21T13:49:34;11.68;;;5.37;;
64085;SDS011;50333;47.436;21.390;2022-08-21T13:52:12;10.90;;;4.43;;
64085;SDS011;50333;47.436;21.390;2022-08-21T13:54:55;7.43;;;4.57;;
64085;SDS011;50333;47.436;21.390;2022-08-21T13:57:58;12.30;;;4.20;;
64085;SDS011;50333;47.436;21.390;2022-08-21T14:00:29;9.95;;;4.85;;
64085;SDS011;50333;47.436;21.390;2022-08-21T14:03:06;22.23;;;5.53;;
64085;SDS011;50333;47.436;21.390;2022-08-21T14:05:43;11.38;;;4.65;;
64085;SDS011;50333;47.436;21.390;2022-08-21T14:08:14;8.40;;;4.20;;
64085;SDS011;50333;47.436;21.390;2022-08-21T14:10:56;12.13;;;5.03;;
64085;SDS011;50333;47.436;21.390;2022-08-21T14:21:37;10.85;;;4.22;;
64085;SDS011;50333;47.436;21.390;2022-08-21T14:24:11;10.50;;;4.47;;
64085;SDS011;50333;47.436;21.390;2022-08-21T14:26:52;9.65;;;4.57;;
64085;SDS011;50333;47.436;21.390;2022-08-21T14:29:22;8.95;;;3.97;;
64085;SDS011;50333;47.436;21.390;2022-08-21T14:31:56;11.40;;;4.30;;
64085;SDS011;50333;47.436;21.390;2022-08-21T14:34:27;7.80;;;4.07;;
64085;SDS011;50333;47.436;21.390;2022-08-21T14:37:02;10.57;;;4.15;;
64085;SDS011;50333;47.436;21.390;2022-08-21T14:39:30;9.55;;;4.25;;
64085;SDS011;50333;47.436;21.390;2022-08-21T14:41:58;8.68;;;4.30;;
64085;SDS011;50333;47.436;21.390;2022-08-21T14:46:56;13.30;;;4.55;;
64085;SDS011;50333;47.436;21.390;2022-08-21T14:49:25;9.20;;;4.20;;
64085;SDS011;50333;47.436;21.390;2022-08-21T14:51:56;8.05;;;4.40;;
64085;SDS011;50333;47.436;21.390;2022-08-21T14:54:26;12.55;;;4.00;;
64085;SDS011;50333;47.436;21.390;2022-08-21T14:56:59;15.02;;;4.25;;
64085;SDS011;50333;47.436;21.390;2022-08-21T14:59:31;9.43;;;4.07;;
64085;SDS011;50333;47.436;21.390;2022-08-21T15:02:00;14.90;;;4.18;;
64085;SDS011;50333;47.436;21.390;2022-08-21T15:04:28;11.93;;;4.32;;
64085;SDS011;50333;47.436;21.390;2022-08-21T15:06:56;13.20;;;4.60;;
64085;SDS011;50333;47.436;21.390;2022-08-21T15:09:24;9.68;;;4.12;;
64085;SDS011;50333;47.436;21.390;2022-08-21T15:11:53;12.70;;;4.18;;
64085;SDS011;50333;47.436;21.390;2022-08-21T15:14:25;9.10;;;4.35;;
64085;SDS011;50333;47.436;21.390;2022-08-21T15:16:55;13.32;;;4.10;;
64085;SDS011;50333;47.436;21.390;2022-08-21T15:19:24;10.32;;;3.90;;
64085;SDS011;50333;47.436;21.390;2022-08-21T15:21:52;12.48;;;4.10;;
64085;SDS011;50333;47.436;21.390;2022-08-21T15:24:20;15.10;;;4.22;;
64085;SDS011;50333;47.436;21.390;2022-08-21T15:26:49;11.30;;;4.47;;
64085;SDS011;50333;47.436;21.390;2022-08-21T15:29:16;8.85;;;4.00;;
64085;SDS011;50333;47.436;21.390;2022-08-21T15:34:22;8.50;;;3.85;;
64085;SDS011;50333;47.436;21.390;2022-08-21T15:36:55;8.15;;;3.53;;
64085;SDS011;50333;47.436;21.390;2022-08-21T15:39:24;7.03;;;3.93;;
64085;SDS011;50333;47.436;21.390;2022-08-21T15:41:58;8.85;;;3.78;;
64085;SDS011;50333;47.436;21.390;2022-08-21T15:44:40;10.27;;;3.80;;
64085;SDS011;50333;47.436;21.390;2022-08-21T15:47:11;10.25;;;3.65;;
64085;SDS011;50333;47.436;21.390;2022-08-21T15:49:41;13.43;;;4.47;;
64085;SDS011;50333;47.436;21.390;2022-08-21T15:52:13;11.12;;;3.80;;
64085;SDS011;50333;47.436;21.390;2022-08-21T15:54:42;7.75;;;3.92;;
64085;SDS011;50333;47.436;21.390;2022-08-21T15:57:11;11.57;;;4.50;;
64085;SDS011;50333;47.436;21.390;2022-08-21T15:59:42;17.08;;;4.47;;
64085;SDS011;50333;47.436;21.390;2022-08-21T16:02:19;14.07;;;4.43;;
64085;SDS011;50333;47.436;21.390;2022-08-21T16:04:50;10.07;;;5.20;;
64085;SDS011;50333;47.436;21.390;2022-08-21T16:07:18;13.60;;;5.12;;
64085;SDS011;50333;47.436;21.390;2022-08-21T16:09:46;10.60;;;4.62;;
64085;SDS011;50333;47.436;21.390;2022-08-21T16:12:36;12.05;;;5.05;;
64085;SDS011;50333;47.436;21.390;2022-08-21T16:15:06;8.30;;;4.55;;
64085;SDS011;50333;47.436;21.390;2022-08-21T16:17:47;8.88;;;4.37;;